createdAt,value
2023-04-15T00:01:50.497Z,1.20
2023-04-15T00:08:47.279Z,1.02
2023-04-15T00:46:01.144Z,0.90
2023-04-15T00:48:33.644Z,1.10
2023-04-15T00:51:07.397Z,1.17
2023-04-15T00:53:39.878Z,1.10
2023-04-15T00:56:14.428Z,1.10
2023-04-15T00:58:46.921Z,0.95
2023-04-15T01:01:22.547Z,1.02
2023-04-15T01:03:59.797Z,1.10
2023-04-15T01:06:33.635Z,1.00
2023-04-15T01:09:06.606Z,1.13
2023-04-15T01:11:39.913Z,1.17
2023-04-15T01:14:18.488Z,0.93
2023-04-15T01:16:51.090Z,1.10
2023-04-15T01:19:24.487Z,1.05
2023-04-15T01:21:58.812Z,1.00
2023-04-15T01:24:36.204Z,1.00
2023-04-15T01:53:12.643Z,0.80
2023-04-15T01:55:52.595Z,0.90
2023-04-15T01:58:25.237Z,1.02
2023-04-15T02:01:00.398Z,1.00
2023-04-15T02:03:33.116Z,1.00
2023-04-15T02:06:08.303Z,0.90
2023-04-15T02:08:41.128Z,0.80
2023-04-15T02:11:16.135Z,0.85
2023-04-15T02:18:46.376Z,0.90
2023-04-15T02:29:55.894Z,0.75
2023-04-15T02:32:29.266Z,0.70
2023-04-15T02:35:07.096Z,0.60
2023-04-15T02:37:46.725Z,0.90
2023-04-15T02:40:19.360Z,0.82
2023-04-15T02:42:53.287Z,1.00
2023-04-15T02:45:32.271Z,0.80
2023-04-15T02:48:08.918Z,1.02
2023-04-15T02:50:41.952Z,1.10
2023-04-15T02:53:17.710Z,0.80
2023-04-15T02:58:22.453Z,0.60
2023-04-15T03:00:56.213Z,0.70
2023-04-15T03:03:31.215Z,0.73
2023-04-15T03:06:03.723Z,0.90
2023-04-15T03:08:36.591Z,0.80
2023-04-15T03:11:10.387Z,1.00
2023-04-15T03:13:44.512Z,1.00
2023-04-15T03:16:29.618Z,0.90
2023-04-15T03:19:03.947Z,0.80
2023-04-15T03:21:42.026Z,0.80
2023-04-15T03:24:19.248Z,0.70
2023-04-15T03:26:52.343Z,0.80
2023-04-15T03:29:28.004Z,0.70
2023-04-15T03:43:08.884Z,0.88
2023-04-15T03:45:44.392Z,0.60
2023-04-15T03:48:18.981Z,0.70
2023-04-15T03:50:54.517Z,0.60
2023-04-15T03:53:27.077Z,0.90
2023-04-15T03:55:59.686Z,0.70
2023-04-15T03:58:32.048Z,0.88
2023-04-15T04:01:05.191Z,0.80
2023-04-15T04:03:37.939Z,0.95
2023-04-15T04:06:13.874Z,0.70
2023-04-15T04:08:48.922Z,0.88
2023-04-15T04:11:21.593Z,0.80
2023-04-15T04:13:54.262Z,1.00
2023-04-15T04:16:26.746Z,0.80
2023-04-15T04:18:59.424Z,0.90
2023-04-15T04:21:34.163Z,0.73
2023-04-15T04:24:06.636Z,0.73
2023-04-15T04:26:39.086Z,0.80
2023-04-15T04:29:13.884Z,0.70
2023-04-15T04:31:48.743Z,0.73
2023-04-15T04:34:21.190Z,0.70
2023-04-15T04:36:55.843Z,0.70
2023-04-15T04:39:28.267Z,0.80
2023-04-15T04:42:03.042Z,0.70
2023-04-15T04:44:35.463Z,0.80
2023-04-15T04:47:07.800Z,0.80
2023-04-15T04:49:41.178Z,0.70
2023-04-15T04:54:52.735Z,0.80
2023-04-15T04:57:25.283Z,0.80
2023-04-15T04:59:57.745Z,0.70
2023-04-15T05:02:33.814Z,0.60
2023-04-15T05:05:11.296Z,0.55
2023-04-15T05:07:43.791Z,0.80
2023-04-15T05:10:18.098Z,0.70
2023-04-15T05:12:52.519Z,0.65
2023-04-15T05:15:25.408Z,0.70
2023-04-15T05:17:57.891Z,0.85
2023-04-15T05:20:31.883Z,0.60
2023-04-15T05:23:04.496Z,0.80
2023-04-15T05:25:37.245Z,0.65
2023-04-15T05:28:09.728Z,0.80
2023-04-15T05:30:45.207Z,0.82
2023-04-15T05:33:17.773Z,0.68
2023-04-15T05:43:26.634Z,0.68
2023-04-15T05:46:01.411Z,0.83
2023-04-15T05:48:33.909Z,0.70
2023-04-15T05:51:06.582Z,0.60
2023-04-15T05:53:41.696Z,0.80
2023-04-15T05:56:14.642Z,0.80
2023-04-15T05:58:50.518Z,0.80
2023-04-15T06:01:23.702Z,0.70
2023-04-15T06:03:57.298Z,0.70
2023-04-15T06:06:33.710Z,0.63
2023-04-15T06:11:38.900Z,0.70
2023-04-15T06:14:11.660Z,0.68
2023-04-15T06:16:44.161Z,0.98
2023-04-15T06:19:16.708Z,0.70
2023-04-15T06:21:52.646Z,0.60
2023-04-15T06:24:26.444Z,0.60
2023-04-15T06:26:59.105Z,0.60
2023-04-15T06:29:31.532Z,0.70
2023-04-15T06:32:04.151Z,0.60
2023-04-15T06:34:39.109Z,0.70
2023-04-15T06:37:15.950Z,0.70
2023-04-15T06:39:48.501Z,0.70
2023-04-15T06:42:21.109Z,0.70
2023-04-15T06:44:54.488Z,0.88
2023-04-15T06:47:29.038Z,0.63
2023-04-15T06:50:01.866Z,0.70
2023-04-15T06:52:36.571Z,0.65
2023-04-15T06:55:11.531Z,0.80
2023-04-15T06:57:44.096Z,0.70
2023-04-15T07:00:19.178Z,0.60
2023-04-15T07:02:51.678Z,0.70
2023-04-15T07:05:30.589Z,0.70
2023-04-15T07:08:03.293Z,0.60
2023-04-15T07:10:37.537Z,0.70
2023-04-15T07:13:09.822Z,0.80
2023-04-15T07:15:42.337Z,0.60
2023-04-15T07:18:14.705Z,0.70
2023-04-15T07:20:47.138Z,0.70
2023-04-15T07:23:19.546Z,0.80
2023-04-15T07:25:53.146Z,0.70
2023-04-15T07:28:25.491Z,0.60
2023-04-15T07:30:57.992Z,0.80
2023-04-15T07:33:31.209Z,0.80
2023-04-15T07:36:03.809Z,0.68
2023-04-15T07:38:36.239Z,0.75
2023-04-15T07:41:09.253Z,0.70
2023-04-15T07:43:41.684Z,0.70
2023-04-15T07:46:14.396Z,0.70
2023-04-15T07:48:47.204Z,0.60
2023-04-15T07:51:21.268Z,0.70
2023-04-15T07:53:54.149Z,0.80
2023-04-15T07:56:28.966Z,0.60
2023-04-15T07:59:04.841Z,0.75
2023-04-15T08:01:37.921Z,0.65
2023-04-15T08:04:11.290Z,0.70
2023-04-15T08:20:49.792Z,0.70
2023-04-15T08:26:13.171Z,0.93
2023-04-15T08:31:34.277Z,0.63
2023-04-15T08:34:13.973Z,0.80
2023-04-15T08:36:46.660Z,0.65
2023-04-15T08:39:19.351Z,0.80
2023-04-15T08:42:03.890Z,0.82
2023-04-15T08:44:40.305Z,0.80
2023-04-15T08:47:17.415Z,0.88
2023-04-15T08:49:54.206Z,0.80
2023-04-15T08:52:29.220Z,0.80
2023-04-15T08:55:08.560Z,0.70
2023-04-15T09:06:22.286Z,0.68
2023-04-15T09:08:55.287Z,0.70
2023-04-15T09:44:41.964Z,0.80
2023-04-15T09:46:59.345Z,0.93
2023-04-15T09:49:56.434Z,0.90
2023-04-15T09:52:29.724Z,0.70
2023-04-15T09:55:13.302Z,0.80
2023-04-15T09:57:48.380Z,0.90
2023-04-15T10:00:21.838Z,0.80
2023-04-15T10:02:54.860Z,1.05
2023-04-15T10:05:31.332Z,0.90
2023-04-15T10:24:40.059Z,0.95
2023-04-15T10:27:48.669Z,1.00
2023-04-15T10:58:43.443Z,1.00
2023-04-15T11:01:46.451Z,0.88
2023-04-15T11:04:54.078Z,1.10
2023-04-15T11:07:43.282Z,1.00
2023-04-15T11:10:19.976Z,1.30
2023-04-15T11:16:47.447Z,1.00
2023-04-15T11:19:22.253Z,1.20
2023-04-15T11:21:54.656Z,1.03
2023-04-15T11:24:29.352Z,1.17
2023-04-15T11:27:02.481Z,1.00
2023-04-15T11:29:34.874Z,1.25
2023-04-15T11:32:09.507Z,1.15
2023-04-15T11:34:53.956Z,1.30
2023-04-15T11:37:30.502Z,1.00
2023-04-15T11:40:36.384Z,1.20
2023-04-15T12:07:59.905Z,1.20
2023-04-15T12:10:32.629Z,1.00
2023-04-15T12:13:07.839Z,1.10
2023-04-15T12:15:40.460Z,1.20
2023-04-15T12:18:20.006Z,1.20
2023-04-15T12:25:48.217Z,1.40
2023-04-15T12:38:31.940Z,1.33
2023-04-15T12:41:06.674Z,1.20
2023-04-15T12:43:39.242Z,1.10
2023-04-15T12:46:15.654Z,1.30
2023-04-15T12:48:48.111Z,1.30
2023-04-15T13:18:35.885Z,1.30
2023-04-15T13:21:08.288Z,1.20
2023-04-15T13:23:43.685Z,1.30
2023-04-15T13:26:19.170Z,1.10
2023-04-15T13:28:53.131Z,1.25
2023-04-15T13:31:27.413Z,1.30
2023-04-15T13:34:02.770Z,1.42
2023-04-15T13:36:36.438Z,1.25
2023-04-15T14:03:34.987Z,1.50
2023-04-15T14:06:07.614Z,1.77
2023-04-15T14:08:44.229Z,1.47
2023-04-15T14:30:41.199Z,1.10
2023-04-15T14:33:14.883Z,1.42
2023-04-15T14:35:47.577Z,1.20
2023-04-15T14:38:22.678Z,1.10
2023-04-15T14:40:55.368Z,1.15
2023-04-15T14:43:34.748Z,1.30
2023-04-15T15:00:18.589Z,1.30
2023-04-15T15:10:16.242Z,1.38
2023-04-15T15:12:48.678Z,1.40
2023-04-15T15:15:28.959Z,1.35
2023-04-15T15:18:09.083Z,1.33
2023-04-15T15:20:43.594Z,1.40
2023-04-15T15:23:16.106Z,1.25
2023-04-15T15:25:48.449Z,1.40
2023-04-15T15:28:21.940Z,1.45
2023-04-15T15:30:54.243Z,1.45
2023-04-15T15:33:32.029Z,1.40
2023-04-15T15:36:04.583Z,1.45
2023-04-15T15:38:37.097Z,1.40
2023-04-15T15:41:09.429Z,1.30
2023-04-15T15:43:42.064Z,1.20
2023-04-15T15:46:14.821Z,1.20
2023-04-15T15:48:47.259Z,1.10
2023-04-15T15:51:21.032Z,1.00
2023-04-15T15:53:53.584Z,1.20
2023-04-15T15:56:27.029Z,1.10
2023-04-15T15:59:02.611Z,1.05
2023-04-15T16:01:38.138Z,0.95
2023-04-15T16:04:10.985Z,1.05
2023-04-15T16:06:45.059Z,1.08
2023-04-15T16:19:13.985Z,0.80
2023-04-15T16:30:04.711Z,0.90
2023-04-15T16:32:39.720Z,1.13
2023-04-15T16:35:14.620Z,0.88
2023-04-15T16:37:49.106Z,1.00
2023-04-15T16:40:21.502Z,1.05
2023-04-15T16:42:56.340Z,1.00
2023-04-15T16:45:28.752Z,0.98
2023-04-15T16:48:01.264Z,1.10
2023-04-15T16:50:33.990Z,1.10
2023-04-15T16:53:06.980Z,0.90
2023-04-15T16:55:40.121Z,1.00
2023-04-15T16:58:13.464Z,1.10
2023-04-15T17:00:46.215Z,0.85
2023-04-15T17:03:18.769Z,1.05
2023-04-15T17:05:51.392Z,0.98
2023-04-15T17:08:23.871Z,1.00
2023-04-15T17:10:57.921Z,0.93
2023-04-15T17:24:53.664Z,1.00
2023-04-15T17:27:28.791Z,0.90
2023-04-15T17:30:03.502Z,1.10
2023-04-15T17:32:36.164Z,1.17
2023-04-15T17:35:11.954Z,1.00
2023-04-15T17:37:46.109Z,1.00
2023-04-15T17:40:21.379Z,0.98
2023-04-15T17:42:54.001Z,1.20
2023-04-15T17:45:26.575Z,0.90
2023-04-15T17:48:03.609Z,1.10
2023-04-15T18:06:14.113Z,1.10
2023-04-15T18:08:46.627Z,1.20
2023-04-15T18:11:27.673Z,1.20
2023-04-15T18:14:04.954Z,1.13
2023-04-15T18:16:40.552Z,1.10
2023-04-15T18:19:18.489Z,1.15
2023-04-15T18:21:53.367Z,1.00
2023-04-15T18:24:28.364Z,1.10
2023-04-15T18:27:03.812Z,1.08
2023-04-15T19:16:05.279Z,1.20
2023-04-15T19:18:42.450Z,1.30
2023-04-15T19:36:07.146Z,1.40
2023-04-15T19:43:35.917Z,1.50
2023-04-15T19:50:41.845Z,1.40
2023-04-15T20:00:44.388Z,1.50
2023-04-15T20:29:37.803Z,1.98
2023-04-15T20:34:47.417Z,2.05
2023-04-15T20:37:20.445Z,2.13
2023-04-15T20:39:53.005Z,2.20
2023-04-15T20:42:28.927Z,2.40
2023-04-15T20:52:14.803Z,2.30
2023-04-15T20:54:47.290Z,2.60
2023-04-15T20:57:20.950Z,2.13
2023-04-15T20:59:53.429Z,2.30
2023-04-15T21:02:29.777Z,2.80
2023-04-15T21:05:02.583Z,2.38
2023-04-15T21:07:36.608Z,2.40
2023-04-15T21:23:13.008Z,2.20
2023-04-15T21:25:45.765Z,2.65
2023-04-15T21:28:18.166Z,2.63
2023-04-15T21:30:51.007Z,2.83
2023-04-15T21:33:23.916Z,2.80
2023-04-15T21:35:58.878Z,3.13
2023-04-15T21:38:34.254Z,2.72
2023-04-15T21:41:10.653Z,2.95
2023-04-15T21:46:23.203Z,2.60
2023-04-15T21:48:57.774Z,3.10
2023-04-15T21:51:32.942Z,2.95
2023-04-15T21:54:06.648Z,3.00
2023-04-15T21:56:46.621Z,3.10
2023-04-15T21:59:21.355Z,3.30
2023-04-15T22:02:14.225Z,3.20
2023-04-15T22:04:46.830Z,3.33
2023-04-15T22:07:22.659Z,3.10
2023-04-15T22:13:36.643Z,3.88
2023-04-15T22:16:09.575Z,3.63
2023-04-15T22:18:45.346Z,4.00
2023-04-15T22:21:18.977Z,3.83
2023-04-15T22:23:52.229Z,4.07
2023-04-15T22:26:27.726Z,4.10
2023-04-15T22:29:00.135Z,4.73
2023-04-15T22:31:40.752Z,4.67
2023-04-15T22:34:20.774Z,4.00
2023-04-15T23:13:34.193Z,5.10
2023-04-15T23:16:07.106Z,5.50
2023-04-15T23:18:39.636Z,5.57
2023-04-15T23:21:13.415Z,5.07
2023-04-15T23:23:49.386Z,5.40
2023-04-15T23:26:21.773Z,5.88
2023-04-15T23:28:58.816Z,5.65
2023-04-15T23:31:31.529Z,5.80
2023-04-15T23:34:06.215Z,5.70
2023-04-15T23:36:38.688Z,5.65
2023-04-15T23:39:11.623Z,5.50
2023-04-15T23:41:44.166Z,5.90
2023-04-15T23:44:16.636Z,6.57
2023-04-15T23:46:56.646Z,6.30
2023-04-15T23:49:36.745Z,5.80
2023-04-15T23:52:11.660Z,6.38
2023-04-15T23:54:44.052Z,6.65
2023-04-15T23:57:21.057Z,6.53
